Time;durP1;ratioP1;P1;durP2;ratioP2;P2;SDS_P1;SDS_P2;PMS_P1;PMS_P2;Temp;Humidity;BMP_temperature;BMP_pressure;BME280_temperature;BME280_humidity;BME280_pressure;Samples;Min_cycle;Max_cycle;Signal;HPM_P1;HPM_P2
2022/05/20 00:00:05;;;;;;;;;;;;;;;16.67;41.23;100378.44;4254301;33;33756;-85
2022/05/20 00:02:34;;;;;;;;;;;;;;;16.72;41.31;100388.81;4267500;33;34079;-85
2022/05/20 00:05:03;;;;;;;;;;;;;;;16.72;41.29;100384.44;4267419;33;33979;-86
2022/05/20 00:07:35;;;;;;;;;;;;;;;16.70;41.27;100386.25;4262564;33;34193;-86
2022/05/20 00:10:04;;;;;;;;;;;;;;;16.69;41.41;100384.50;4262408;33;34638;-85
2022/05/20 00:12:32;;;;;;;;;;;;;;;16.66;41.37;100381.12;4259550;33;32903;-87
2022/05/20 00:15:02;;;;;;;;;;;;;;;16.65;40.78;100385.53;4259992;33;35020;-87
2022/05/20 00:17:31;;;;;;;;;;;;;;;16.54;41.59;100383.16;4267325;33;33967;-86
2022/05/20 00:20:00;;;;;;;;;;;;;;;16.58;41.05;100371.72;4267078;33;34134;-85
2022/05/20 00:22:29;;;;;;;;;;;;;;;16.45;41.66;100375.56;4267508;33;34000;-85
2022/05/20 00:27:56;;;;;;;;;;;;;;;16.37;42.09;100374.91;4244256;33;34533;-84
2022/05/20 00:30:26;;;;;;;;;;;;;;;16.29;42.39;100377.72;4238866;33;33520;-86
2022/05/20 00:32:55;;;;;;;;;;;;;;;16.24;42.61;100371.75;4238729;33;33144;-84
2022/05/20 00:35:23;;;;;;;;;;;;;;;16.24;42.56;100376.09;4237468;33;33832;-85
2022/05/20 00:37:54;;;;;;;;;;;;;;;16.11;43.14;100368.56;4238175;33;34115;-84
2022/05/20 00:40:24;;;;;;;;;;;;;;;15.97;43.39;100368.03;4243959;33;34136;-86
2022/05/20 00:42:53;;;;;;;;;;;;;;;16.01;43.42;100377.56;4238554;33;32901;-84
2022/05/20 00:45:22;;;;;;;;;;;;;;;15.97;43.75;100379.41;4238528;33;34220;-85
2022/05/20 00:47:52;;;;;;;;;;;;;;;15.94;43.75;100379.44;4238564;33;33748;-85
2022/05/20 00:50:20;;;;;;;;;;;;;;;15.79;44.25;100385.91;4238169;33;33546;-85
2022/05/20 00:52:49;;;;;;;;;;;;;;;15.63;44.81;100388.88;4242327;33;33226;-85
2022/05/20 00:55:19;;;;;;;;;;;;;;;15.63;44.89;100391.50;4245211;33;34643;-85
2022/05/20 00:57:49;;;;;;;;;;;;;;;15.56;45.21;100389.03;4238841;33;35074;-85
2022/05/20 01:00:19;;;;;;;;;;;;;;;15.55;45.44;100389.06;4234405;33;33544;-86
2022/05/20 01:02:48;;;;;;;;;;;;;;;15.60;45.38;100389.81;4250209;33;33210;-86
2022/05/20 01:05:21;;;;;;;;;;;;;;;15.50;45.34;100386.53;4266381;33;34222;-84
2022/05/20 01:07:50;;;;;;;;;;;;;;;15.47;45.05;100380.53;4265933;33;33821;-85
2022/05/20 01:10:19;;;;;;;;;;;;;;;15.42;45.41;100382.41;4257612;33;33843;-87
2022/05/20 01:12:49;;;;;;;;;;;;;;;15.33;45.71;100373.84;4268790;33;32915;-85
2022/05/20 01:15:18;;;;;;;;;;;;;;;15.25;45.71;100375.78;4269368;33;33050;-85
2022/05/20 01:17:46;;;;;;;;;;;;;;;15.28;45.21;100380.06;4275282;33;34266;-85
2022/05/20 01:20:16;;;;;;;;;;;;;;;15.37;45.28;100382.50;4269995;33;33975;-85
2022/05/20 01:22:50;;;;;;;;;;;;;;;15.38;44.97;100381.59;4269503;33;33264;-85
2022/05/20 01:25:18;;;;;;;;;;;;;;;15.28;44.54;100378.31;4269852;33;34059;-85
2022/05/20 01:27:47;;;;;;;;;;;;;;;15.35;44.70;100374.69;4269903;33;34511;-85
2022/05/20 01:30:17;;;;;;;;;;;;;;;15.28;44.83;100370.47;4275116;33;33762;-85
2022/05/20 01:32:46;;;;;;;;;;;;;;;15.32;44.37;100376.50;4264557;33;34899;-85
2022/05/20 01:35:15;;;;;;;;;;;;;;;15.30;44.41;100384.38;4254997;33;34273;-84
2022/05/20 01:37:44;;;;;;;;;;;;;;;15.21;45.11;100376.72;4255499;33;33915;-84
2022/05/20 01:40:13;;;;;;;;;;;;;;;15.13;46.24;100378.66;4255395;33;34675;-86
2022/05/20 01:42:44;;;;;;;;;;;;;;;15.06;45.84;100371.84;4263586;33;32668;-85
2022/05/20 01:45:14;;;;;;;;;;;;;;;14.97;45.64;100369.41;4275125;33;35172;-85
2022/05/20 01:47:44;;;;;;;;;;;;;;;15.13;45.19;100368.19;4269687;33;33907;-85
2022/05/20 01:50:14;;;;;;;;;;;;;;;15.05;45.35;100372.72;4269422;33;33982;-85
2022/05/20 01:52:43;;;;;;;;;;;;;;;14.89;45.75;100354.75;4270412;33;34160;-85
2022/05/20 01:55:13;;;;;;;;;;;;;;;15.02;45.49;100351.88;4269261;33;34959;-85
2022/05/20 01:57:44;;;;;;;;;;;;;;;15.01;45.64;100353.62;4274869;33;34269;-85
2022/05/20 02:00:14;;;;;;;;;;;;;;;14.64;46.43;100351.78;4269877;33;33981;-85
2022/05/20 02:02:44;;;;;;;;;;;;;;;14.79;46.09;100355.81;4269240;33;32134;-85
2022/05/20 02:05:14;;;;;;;;;;;;;;;14.80;46.32;100346.22;4269390;33;34025;-84
2022/05/20 02:07:44;;;;;;;;;;;;;;;14.84;45.81;100342.69;4269297;33;34820;-85
2022/05/20 02:10:13;;;;;;;;;;;;;;;14.89;45.99;100346.91;4272407;33;34451;-85
2022/05/20 02:12:46;;;;;;;;;;;;;;;14.85;46.32;100342.63;4274483;33;33487;-85
2022/05/20 02:15:17;;;;;;;;;;;;;;;14.80;46.49;100347.09;4258384;33;34695;-85
2022/05/20 02:17:46;;;;;;;;;;;;;;;14.54;47.20;100355.41;4256054;33;34422;-85
2022/05/20 02:20:16;;;;;;;;;;;;;;;14.47;47.07;100353.78;4269510;33;33490;-85
2022/05/20 02:22:45;;;;;;;;;;;;;;;14.51;46.83;100358.06;4268219;33;33691;-85
2022/05/20 02:25:14;;;;;;;;;;;;;;;14.54;46.03;100354.56;4276643;33;34969;-85
2022/05/20 02:27:45;;;;;;;;;;;;;;;14.56;46.28;100353.66;4269532;33;33557;-85
2022/05/20 02:30:15;;;;;;;;;;;;;;;14.32;46.95;100354.06;4269617;33;34654;-85
2022/05/20 02:32:45;;;;;;;;;;;;;;;14.64;46.18;100349.16;4267439;33;33288;-85
2022/05/20 02:35:14;;;;;;;;;;;;;;;14.63;45.71;100354.41;4257673;33;33357;-85
2022/05/20 02:37:45;;;;;;;;;;;;;;;14.49;46.62;100352.84;4260116;33;34977;-86
2022/05/20 02:40:15;;;;;;;;;;;;;;;14.42;46.82;100350.41;4254905;33;34837;-85
2022/05/20 02:42:45;;;;;;;;;;;;;;;14.22;46.77;100353.38;4241764;33;32227;-85
2022/05/20 02:45:14;;;;;;;;;;;;;;;14.28;47.07;100342.84;4260164;33;33212;-85
2022/05/20 02:47:42;;;;;;;;;;;;;;;14.09;47.56;100345.75;4255454;33;34209;-86
2022/05/20 02:50:11;;;;;;;;;;;;;;;14.42;47.13;100335.59;4260115;33;34526;-85
2022/05/20 02:52:40;;;;;;;;;;;;;;;14.41;47.35;100333.03;4261372;33;32776;-86
2022/05/20 02:55:09;;;;;;;;;;;;;;;14.41;47.35;100333.88;4269261;33;33911;-85
2022/05/20 02:57:37;;;;;;;;;;;;;;;14.44;47.33;100327.72;4269201;33;34161;-85
2022/05/20 03:05:52;;;;;;;;;;;;;;;14.40;46.75;100326.94;4274417;33;33747;-85
2022/05/20 03:08:21;;;;;;;;;;;;;;;14.22;47.29;100320.31;4254963;33;34340;-85
2022/05/20 03:10:49;;;;;;;;;;;;;;;14.30;46.62;100321.03;4267852;33;33978;-84
2022/05/20 03:13:18;;;;;;;;;;;;;;;14.26;47.11;100319.38;4254722;33;31564;-84
2022/05/20 03:15:48;;;;;;;;;;;;;;;14.49;46.25;100320.69;4269306;33;34966;-85
2022/05/20 03:18:17;;;;;;;;;;;;;;;14.51;46.47;100322.37;4274338;33;34216;-84
2022/05/20 03:20:46;;;;;;;;;;;;;;;14.50;46.57;100320.66;4272896;33;33905;-84
2022/05/20 03:23:14;;;;;;;;;;;;;;;14.35;47.30;100328.75;4267709;33;33062;-85
2022/05/20 03:25:43;;;;;;;;;;;;;;;14.53;46.97;100322.34;4268483;33;34461;-84
2022/05/20 03:28:12;;;;;;;;;;;;;;;14.43;47.41;100326.88;4269059;33;34867;-84
2022/05/20 03:30:41;;;;;;;;;;;;;;;14.34;47.64;100329.66;4269107;33;33526;-85
2022/05/20 03:33:11;;;;;;;;;;;;;;;14.40;47.28;100326.06;4273375;33;33846;-84
2022/05/20 03:35:39;;;;;;;;;;;;;;;14.50;46.79;100331.09;4269130;33;34332;-84
2022/05/20 03:38:14;;;;;;;;;;;;;;;14.56;46.78;100327.53;4267887;33;35068;-84
2022/05/20 03:40:43;;;;;;;;;;;;;;;14.18;47.38;100326.47;4268808;33;34137;-84
2022/05/20 03:43:11;;;;;;;;;;;;;;;14.43;46.68;100320.81;4268494;33;33066;-84
2022/05/20 03:45:41;;;;;;;;;;;;;;;14.38;47.23;100320.91;4261004;33;33957;-84
2022/05/20 03:48:11;;;;;;;;;;;;;;;14.49;47.28;100325.91;4268774;33;34367;-86
2022/05/20 03:50:39;;;;;;;;;;;;;;;14.55;47.39;100328.44;4268358;33;34880;-84
2022/05/20 03:53:08;;;;;;;;;;;;;;;14.84;45.98;100321.78;4268205;33;32734;-84
2022/05/20 03:55:37;;;;;;;;;;;;;;;14.73;46.12;100332.44;4255739;33;32455;-84
2022/05/20 03:58:05;;;;;;;;;;;;;;;14.55;47.21;100331.06;4274953;33;34808;-84
2022/05/20 04:01:56;;;;;;;;;;;;;;;14.66;46.87;100323.00;4270161;33;33529;-85
2022/05/20 04:03:24;;;;;;;;;;;;;;;14.81;46.99;100321.81;4268052;33;33122;-84
2022/05/20 04:05:53;;;;;;;;;;;;;;;14.90;47.18;100321.63;4263332;33;34065;-84
2022/05/20 04:08:22;;;;;;;;;;;;;;;14.96;46.87;100325.91;4269881;33;34180;-84
2022/05/20 04:10:53;;;;;;;;;;;;;;;15.04;46.48;100323.97;4274471;33;34347;-85
2022/05/20 04:13:21;;;;;;;;;;;;;;;15.14;46.74;100313.25;4275551;33;33907;-84
2022/05/20 04:15:51;;;;;;;;;;;;;;;15.20;46.34;100333.19;4270449;33;34072;-84
2022/05/20 04:18:20;;;;;;;;;;;;;;;15.34;46.40;100327.66;4269458;33;34934;-84
2022/05/20 04:20:50;;;;;;;;;;;;;;;15.41;46.12;100326.59;4266857;33;34742;-84
2022/05/20 04:23:20;;;;;;;;;;;;;;;15.61;46.98;100328.78;4258240;33;33259;-84
2022/05/20 04:25:48;;;;;;;;;;;;;;;15.69;46.46;100331.22;4261247;33;34134;-84
2022/05/20 04:28:17;;;;;;;;;;;;;;;15.97;46.49;100331.41;4255867;33;34793;-84
2022/05/20 04:30:46;;;;;;;;;;;;;;;16.08;45.89;100324.16;4255952;33;33549;-84
2022/05/20 04:33:14;;;;;;;;;;;;;;;16.21;44.95;100319.44;4267221;33;33755;-85
2022/05/20 04:35:43;;;;;;;;;;;;;;;16.31;44.32;100320.06;4270171;33;35175;-84
2022/05/20 04:38:13;;;;;;;;;;;;;;;16.70;43.28;100318.13;4275250;33;34348;-84
2022/05/20 04:40:41;;;;;;;;;;;;;;;16.76;42.27;100333.66;4269882;33;34781;-84
2022/05/20 04:48:42;;;;;;;;;;;;;;;16.97;43.05;100326.97;4268964;33;34182;-85
2022/05/20 04:51:11;;;;;;;;;;;;;;;16.81;44.38;100326.56;4270292;33;33164;-85
2022/05/20 04:56:27;;;;;;;;;;;;;;;17.22;43.88;100308.75;4275024;33;34159;-85
2022/05/20 04:58:55;;;;;;;;;;;;;;;17.52;43.46;100313.06;4269703;33;34632;-85
2022/05/20 05:01:24;;;;;;;;;;;;;;;17.87;42.87;100325.09;4269119;33;34803;-85
2022/05/20 05:03:53;;;;;;;;;;;;;;;18.23;42.71;100330.88;4267550;33;33495;-86
2022/05/20 05:06:21;;;;;;;;;;;;;;;18.80;41.64;100325.37;4266777;33;34866;-86
2022/05/20 05:08:51;;;;;;;;;;;;;;;18.48;42.42;100327.38;4271221;33;33723;-85
2022/05/20 05:11:20;;;;;;;;;;;;;;;19.21;41.23;100329.09;4269679;33;33200;-85
2022/05/20 05:13:48;;;;;;;;;;;;;;;19.20;40.18;100340.53;4274800;33;33360;-86
2022/05/20 05:16:17;;;;;;;;;;;;;;;19.93;36.59;100339.38;4280803;33;34256;-85
2022/05/20 05:18:46;;;;;;;;;;;;;;;20.17;37.84;100341.91;4275791;33;33328;-85
2022/05/20 05:21:14;;;;;;;;;;;;;;;20.55;36.20;100344.69;4276610;33;33652;-87
2022/05/20 05:23:45;;;;;;;;;;;;;;;20.66;35.54;100347.75;4269559;33;33344;-85
2022/05/20 05:26:15;;;;;;;;;;;;;;;20.38;35.60;100338.34;4252171;33;33322;-84
2022/05/20 05:28:44;;;;;;;;;;;;;;;20.71;36.01;100327.28;4267443;33;34134;-85
2022/05/20 05:31:13;;;;;;;;;;;;;;;20.85;36.28;100332.81;4263906;33;34155;-85
2022/05/20 05:33:42;;;;;;;;;;;;;;;20.63;36.34;100329.41;4271943;33;33169;-86
2022/05/20 05:36:11;;;;;;;;;;;;;;;20.45;36.29;100318.72;4269791;33;33323;-85
2022/05/20 05:38:43;;;;;;;;;;;;;;;20.86;36.10;100318.66;4268173;33;34158;-85
2022/05/20 05:41:12;;;;;;;;;;;;;;;20.99;35.87;100318.09;4267146;33;33788;-85
2022/05/20 05:43:42;;;;;;;;;;;;;;;21.20;34.54;100317.09;4267661;33;33243;-85
2022/05/20 05:46:10;;;;;;;;;;;;;;;21.48;33.63;100321.09;4267065;33;33806;-85
2022/05/20 05:48:39;;;;;;;;;;;;;;;21.36;33.58;100319.00;4267258;33;33796;-86
2022/05/20 05:51:08;;;;;;;;;;;;;;;21.71;33.66;100328.75;4269830;33;34809;-86
2022/05/20 05:53:36;;;;;;;;;;;;;;;21.24;34.38;100313.41;4266141;33;33535;-86
2022/05/20 05:56:06;;;;;;;;;;;;;;;21.38;33.84;100318.00;4267299;33;34045;-86
2022/05/20 05:58:35;;;;;;;;;;;;;;;21.70;33.21;100326.19;4271922;33;34160;-86
2022/05/20 06:01:05;;;;;;;;;;;;;;;21.48;34.47;100323.72;4274176;33;33536;-86
2022/05/20 06:03:35;;;;;;;;;;;;;;;21.94;33.90;100329.41;4269630;33;33186;-86
2022/05/20 06:06:03;;;;;;;;;;;;;;;21.72;34.51;100319.91;4268010;33;33833;-87
2022/05/20 06:08:32;;;;;;;;;;;;;;;22.09;33.42;100315.41;4269189;33;34168;-86
2022/05/20 06:11:04;;;;;;;;;;;;;;;22.14;33.65;100318.69;4269264;33;33383;-86
2022/05/20 06:13:32;;;;;;;;;;;;;;;21.60;34.13;100315.25;4272452;33;33353;-87
2022/05/20 06:16:01;;;;;;;;;;;;;;;22.28;32.26;100318.00;4267465;33;33506;-87
2022/05/20 06:18:31;;;;;;;;;;;;;;;22.03;31.78;100315.72;4267858;33;35074;-86
2022/05/20 06:20:59;;;;;;;;;;;;;;;21.81;34.80;100312.44;4269577;33;33878;-87
2022/05/20 06:23:28;;;;;;;;;;;;;;;21.64;33.98;100306.22;4267314;33;33980;-86
2022/05/20 06:25:58;;;;;;;;;;;;;;;22.26;32.31;100308.44;4274359;33;34846;-87
2022/05/20 06:28:43;;;;;;;;;;;;;;;22.13;32.36;100309.06;4274437;33;34731;-86
2022/05/20 06:31:12;;;;;;;;;;;;;;;22.28;33.26;100302.16;4268992;33;33990;-87
2022/05/20 06:33:42;;;;;;;;;;;;;;;22.61;31.45;100305.72;4269474;33;33691;-87
2022/05/20 06:41:53;;;;;;;;;;;;;;;22.30;31.21;100304.69;4249874;33;34312;-87
2022/05/20 06:44:24;;;;;;;;;;;;;;;22.63;30.28;100306.50;4249833;33;34068;-87
2022/05/20 06:46:53;;;;;;;;;;;;;;;22.52;31.23;100315.00;4243190;33;32982;-86
2022/05/20 06:49:24;;;;;;;;;;;;;;;22.60;31.66;100311.97;4245615;33;34172;-87
2022/05/20 06:51:54;;;;;;;;;;;;;;;22.70;31.04;100315.81;4243564;33;32789;-86
2022/05/20 06:54:23;;;;;;;;;;;;;;;22.73;30.02;100311.22;4246336;33;33317;-87
2022/05/20 06:56:51;;;;;;;;;;;;;;;22.70;29.63;100318.47;4249634;33;33952;-87
2022/05/20 06:59:20;;;;;;;;;;;;;;;22.71;30.60;100325.44;4250972;33;34962;-87
2022/05/20 07:01:49;;;;;;;;;;;;;;;23.01;29.90;100323.00;4244735;33;32351;-87
2022/05/20 07:04:39;;;;;;;;;;;;;;;22.61;29.05;100326.88;4228222;33;32651;-86
2022/05/20 07:07:08;;;;;;;;;;;;;;;22.46;30.56;100326.75;4241863;33;33436;-86
2022/05/20 07:09:36;;;;;;;;;;;;;;;22.80;30.64;100319.69;4248622;33;35766;-87
2022/05/20 07:12:05;;;;;;;;;;;;;;;22.09;30.33;100326.00;4244035;33;33680;-87
2022/05/20 07:14:34;;;;;;;;;;;;;;;22.38;31.15;100326.31;4251334;33;33217;-86
2022/05/20 07:17:02;;;;;;;;;;;;;;;22.72;31.88;100337.75;4253494;33;33877;-86
2022/05/20 07:19:39;;;;;;;;;;;;;;;22.80;30.88;100323.16;4263905;33;34289;-87
2022/05/20 07:22:08;;;;;;;;;;;;;;;22.55;31.66;100322.78;4272071;33;33890;-87
2022/05/20 07:24:37;;;;;;;;;;;;;;;22.85;31.41;100330.84;4274451;33;33484;-86
2022/05/20 07:27:06;;;;;;;;;;;;;;;22.90;30.43;100322.69;4268870;33;34334;-86
2022/05/20 07:29:34;;;;;;;;;;;;;;;22.65;30.40;100328.44;4269295;33;34987;-86
2022/05/20 07:32:03;;;;;;;;;;;;;;;23.23;30.43;100320.00;4268275;33;34163;-86
2022/05/20 07:34:32;;;;;;;;;;;;;;;23.08;30.67;100315.56;4266807;33;32900;-86
2022/05/20 07:37:02;;;;;;;;;;;;;;;23.26;29.92;100329.56;4273838;33;34245;-86
2022/05/20 07:39:31;;;;;;;;;;;;;;;23.43;28.81;100321.53;4262894;33;33580;-86
2022/05/20 07:41:59;;;;;;;;;;;;;;;23.37;28.89;100317.44;4268606;33;34012;-87
2022/05/20 07:44:28;;;;;;;;;;;;;;;23.70;28.75;100316.44;4268940;33;33651;-86
2022/05/20 07:46:57;;;;;;;;;;;;;;;23.51;29.09;100326.38;4269246;33;34230;-86
2022/05/20 07:49:25;;;;;;;;;;;;;;;23.58;29.10;100323.31;4280213;33;34137;-86
2022/05/20 07:51:55;;;;;;;;;;;;;;;23.63;28.43;100323.91;4279992;33;33964;-87
2022/05/20 07:54:26;;;;;;;;;;;;;;;23.80;29.13;100327.38;4268766;33;33575;-87
2022/05/20 07:56:57;;;;;;;;;;;;;;;23.92;28.77;100323.19;4263891;33;34775;-86
2022/05/20 07:59:27;;;;;;;;;;;;;;;23.92;29.02;100315.22;4252682;33;34646;-86
2022/05/20 08:02:03;;;;;;;;;;;;;;;23.84;29.24;100313.88;4270670;33;33770;-87
2022/05/20 08:04:55;;;;;;;;;;;;;;;24.06;29.16;100309.97;4265001;33;33187;-87
2022/05/20 08:07:24;;;;;;;;;;;;;;;24.11;28.27;100305.25;4264653;33;34936;-87
2022/05/20 08:09:55;;;;;;;;;;;;;;;24.22;28.96;100312.56;4264657;33;34332;-87
2022/05/20 08:12:23;;;;;;;;;;;;;;;24.26;28.92;100312.28;4265505;33;34415;-87
2022/05/20 08:14:54;;;;;;;;;;;;;;;24.38;29.31;100309.81;4266389;33;33433;-87
2022/05/20 08:17:24;;;;;;;;;;;;;;;24.14;29.21;100299.78;4270528;33;34680;-86
2022/05/20 08:19:53;;;;;;;;;;;;;;;24.60;29.06;100307.63;4268418;33;34165;-87
2022/05/20 08:22:23;;;;;;;;;;;;;;;24.42;29.10;100303.41;4265431;33;33813;-85
2022/05/20 08:24:53;;;;;;;;;;;;;;;24.22;29.42;100310.75;4266646;33;32439;-86
2022/05/20 08:27:24;;;;;;;;;;;;;;;24.37;28.94;100300.19;4267884;33;33733;-87
2022/05/20 08:29:52;;;;;;;;;;;;;;;24.37;29.13;100290.41;4273187;33;34870;-86
2022/05/20 08:32:21;;;;;;;;;;;;;;;24.60;28.85;100291.69;4268011;33;34322;-87
2022/05/20 08:34:50;;;;;;;;;;;;;;;24.80;28.02;100286.94;4266962;33;33939;-86
2022/05/20 08:37:19;;;;;;;;;;;;;;;24.70;28.59;100290.16;4263732;33;33734;-87
2022/05/20 08:39:47;;;;;;;;;;;;;;;24.82;27.96;100296.50;4267164;33;34320;-87
2022/05/20 08:42:20;;;;;;;;;;;;;;;25.03;28.18;100294.31;4272752;33;34452;-87
2022/05/20 08:44:51;;;;;;;;;;;;;;;25.00;28.01;100283.88;4269241;33;32822;-86
2022/05/20 08:47:21;;;;;;;;;;;;;;;25.13;28.63;100284.81;4270026;33;34160;-86
2022/05/20 08:49:50;;;;;;;;;;;;;;;25.38;27.38;100274.41;4267772;33;34792;-87
2022/05/20 08:52:19;;;;;;;;;;;;;;;25.42;28.11;100273.25;4267189;33;33968;-86
2022/05/20 08:54:48;;;;;;;;;;;;;;;25.50;27.26;100279.78;4274590;33;33184;-86
2022/05/20 08:57:37;;;;;;;;;;;;;;;25.15;28.00;100262.59;4275298;33;33937;-87
2022/05/20 09:00:09;;;;;;;;;;;;;;;25.48;28.11;100263.06;4271054;33;33935;-86
2022/05/20 09:02:38;;;;;;;;;;;;;;;25.94;26.37;100260.00;4270653;33;33606;-86
2022/05/20 09:05:13;;;;;;;;;;;;;;;25.73;26.87;100257.00;4269948;33;33604;-87
2022/05/20 09:08:00;;;;;;;;;;;;;;;25.84;26.46;100245.62;4269487;33;33698;-86
2022/05/20 09:10:33;;;;;;;;;;;;;;;26.03;26.77;100247.91;4271042;33;35080;-86
2022/05/20 09:13:09;;;;;;;;;;;;;;;26.23;26.89;100238.53;4275069;33;34262;-86
2022/05/20 09:15:43;;;;;;;;;;;;;;;26.38;25.88;100229.47;4273584;33;33020;-86
2022/05/20 09:18:13;;;;;;;;;;;;;;;26.49;26.36;100230.53;4269991;33;34857;-87
2022/05/20 09:20:42;;;;;;;;;;;;;;;26.70;27.09;100229.03;4269744;33;34080;-87
2022/05/20 09:23:11;;;;;;;;;;;;;;;26.81;26.17;100228.25;4270318;33;34472;-87
2022/05/20 09:25:46;;;;;;;;;;;;;;;26.94;26.44;100233.53;4269966;33;33456;-87
2022/05/20 09:28:20;;;;;;;;;;;;;;;27.10;26.71;100227.94;4274080;33;34950;-87
2022/05/20 09:30:51;;;;;;;;;;;;;;;27.01;26.60;100218.81;4268964;33;34718;-87
2022/05/20 09:33:21;;;;;;;;;;;;;;;27.12;26.31;100224.22;4267917;33;33585;-87
2022/05/20 09:35:52;;;;;;;;;;;;;;;27.05;26.12;100216.78;4268286;33;33448;-87
2022/05/20 09:38:31;;;;;;;;;;;;;;;27.14;26.15;100221.44;4265773;33;33829;-87
2022/05/20 09:41:00;;;;;;;;;;;;;;;27.17;26.28;100216.72;4268023;33;34111;-87
2022/05/20 09:43:29;;;;;;;;;;;;;;;27.38;26.51;100208.97;4274362;33;33710;-87
2022/05/20 09:45:59;;;;;;;;;;;;;;;27.40;25.45;100211.50;4267771;33;32000;-86
2022/05/20 09:48:33;;;;;;;;;;;;;;;27.77;25.80;100209.56;4265056;33;34098;-87
2022/05/20 09:51:03;;;;;;;;;;;;;;;27.65;25.88;100210.53;4267769;33;34829;-86
2022/05/20 09:53:36;;;;;;;;;;;;;;;27.78;26.11;100221.94;4269829;33;34083;-87
2022/05/20 09:56:14;;;;;;;;;;;;;;;28.06;25.13;100222.50;4274030;33;33284;-87
2022/05/20 09:58:43;;;;;;;;;;;;;;;28.15;24.78;100219.13;4272487;33;33706;-87
2022/05/20 10:01:15;;;;;;;;;;;;;;;28.28;25.97;100219.00;4269631;33;33749;-87
2022/05/20 10:03:44;;;;;;;;;;;;;;;28.10;25.39;100221.28;4271260;33;34617;-86
2022/05/20 10:06:15;;;;;;;;;;;;;;;28.08;26.52;100220.59;4267833;33;33322;-87
2022/05/20 10:08:45;;;;;;;;;;;;;;;27.96;25.76;100216.19;4267789;33;33886;-87
2022/05/20 10:11:14;;;;;;;;;;;;;;;28.02;25.41;100207.72;4260631;33;34295;-87
2022/05/20 10:13:45;;;;;;;;;;;;;;;28.11;25.36;100208.81;4255951;33;34334;-88
2022/05/20 10:16:22;;;;;;;;;;;;;;;28.02;25.91;100203.22;4255979;33;33580;-88
2022/05/20 10:18:53;;;;;;;;;;;;;;;27.95;25.88;100202.00;4255525;33;33477;-87
2022/05/20 10:21:38;;;;;;;;;;;;;;;28.20;25.98;100197.44;4259945;33;33043;-87
2022/05/20 10:24:09;;;;;;;;;;;;;;;28.39;24.98;100207.47;4271653;33;33352;-87
2022/05/20 10:26:40;;;;;;;;;;;;;;;28.27;26.03;100201.28;4269110;33;33448;-87
2022/05/20 10:34:48;;;;;;;;;;;;;;;28.63;25.08;100194.00;4269132;33;33292;-89
2022/05/20 10:37:19;;;;;;;;;;;;;;;28.81;25.05;100191.69;4268903;33;34073;-87
2022/05/20 10:40:12;;;;;;;;;;;;;;;29.04;25.39;100195.12;4269089;33;33851;-87
2022/05/20 10:42:46;;;;;;;;;;;;;;;28.89;24.96;100192.75;4270841;33;34516;-87
2022/05/20 10:48:35;;;;;;;;;;;;;;;29.65;23.87;100192.69;4269102;33;32854;-87
2022/05/20 10:51:07;;;;;;;;;;;;;;;29.60;23.60;100186.91;4266870;33;34641;-87
2022/05/20 10:53:37;;;;;;;;;;;;;;;29.62;24.29;100179.56;4267757;33;34040;-87
2022/05/20 10:56:16;;;;;;;;;;;;;;;29.58;24.05;100183.50;4263827;33;33719;-87
2022/05/20 10:58:57;;;;;;;;;;;;;;;29.65;24.49;100181.12;4269874;33;33490;-87
2022/05/20 11:01:27;;;;;;;;;;;;;;;29.96;23.82;100163.31;4270578;33;34837;-88
2022/05/20 11:04:12;;;;;;;;;;;;;;;30.07;23.80;100160.56;4265941;33;33576;-87
2022/05/20 11:07:05;;;;;;;;;;;;;;;30.27;23.49;100169.53;4249948;33;33122;-86
2022/05/20 11:09:37;;;;;;;;;;;;;;;30.09;24.27;100165.81;4265421;33;33271;-87
2022/05/20 11:12:06;;;;;;;;;;;;;;;29.76;24.42;100168.56;4263726;33;34322;-86
2022/05/20 11:14:49;;;;;;;;;;;;;;;29.94;23.90;100160.81;4266744;33;34083;-87
2022/05/20 11:17:23;;;;;;;;;;;;;;;30.00;23.80;100151.38;4262556;33;34043;-87
2022/05/20 11:20:00;;;;;;;;;;;;;;;29.93;23.55;100144.88;4269342;33;33798;-86
2022/05/20 11:22:39;;;;;;;;;;;;;;;30.23;24.19;100146.69;4267932;33;33867;-88
2022/05/20 11:25:26;;;;;;;;;;;;;;;30.50;24.12;100142.59;4241238;33;889312;-87
2022/05/20 11:28:05;;;;;;;;;;;;;;;30.57;23.28;100141.87;4267839;33;33381;-87
2022/05/20 11:30:37;;;;;;;;;;;;;;;31.03;22.54;100136.88;4267541;33;33768;-87
2022/05/20 11:33:20;;;;;;;;;;;;;;;31.35;23.24;100131.22;4267402;33;34996;-87
2022/05/20 11:35:58;;;;;;;;;;;;;;;31.53;24.47;100141.22;4271757;33;34687;-87
2022/05/20 11:38:42;;;;;;;;;;;;;;;31.52;21.76;100134.19;4270339;33;35329;-87
2022/05/20 11:41:17;;;;;;;;;;;;;;;31.73;22.40;100128.63;4264516;33;33183;-86
2022/05/20 11:43:51;;;;;;;;;;;;;;;31.52;22.83;100123.47;4265065;33;33424;-86
2022/05/20 11:46:24;;;;;;;;;;;;;;;31.53;22.66;100119.78;4266963;33;34366;-87
2022/05/20 11:49:04;;;;;;;;;;;;;;;31.61;22.02;100114.53;4267787;33;34740;-87
2022/05/20 11:51:51;;;;;;;;;;;;;;;31.57;22.04;100113.97;4273497;33;33939;-87
2022/05/20 11:54:23;;;;;;;;;;;;;;;31.23;22.62;100116.28;4273207;33;34483;-87
2022/05/20 11:56:51;;;;;;;;;;;;;;;31.31;22.84;100108.34;4268764;33;35214;-87
2022/05/20 11:59:21;;;;;;;;;;;;;;;31.72;23.19;100100.94;4268757;33;34450;-87
2022/05/20 12:01:50;;;;;;;;;;;;;;;31.93;23.08;100107.94;4268737;33;34115;-87
2022/05/20 12:04:21;;;;;;;;;;;;;;;32.39;22.35;100098.94;4267560;33;33927;-87
2022/05/20 12:06:50;;;;;;;;;;;;;;;32.84;22.24;100103.47;4273556;33;35097;-86
2022/05/20 12:09:32;;;;;;;;;;;;;;;32.58;22.29;100103.38;4267250;33;33645;-87
2022/05/20 12:12:24;;;;;;;;;;;;;;;32.39;22.42;100090.88;4256080;33;32125;-87
2022/05/20 12:15:12;;;;;;;;;;;;;;;31.68;23.27;100084.31;4254566;33;33556;-89
2022/05/20 12:17:42;;;;;;;;;;;;;;;31.44;23.38;100092.00;4266703;33;34300;-87
2022/05/20 12:26:23;;;;;;;;;;;;;;;31.81;23.28;100081.28;4270318;33;34024;-87
2022/05/20 12:28:52;;;;;;;;;;;;;;;31.91;23.42;100075.88;4264923;33;33771;-87
2022/05/20 12:31:26;;;;;;;;;;;;;;;32.24;22.89;100073.63;4272991;33;34258;-87
2022/05/20 12:33:56;;;;;;;;;;;;;;;32.78;22.13;100071.00;4265199;33;33267;-88
2022/05/20 12:36:34;;;;;;;;;;;;;;;32.62;22.55;100080.59;4269746;33;33646;-87
2022/05/20 12:39:17;;;;;;;;;;;;;;;32.50;22.08;100076.44;4268237;33;32821;-87
2022/05/20 12:41:59;;;;;;;;;;;;;;;32.47;22.36;100071.31;4269828;33;33935;-88
2022/05/20 12:44:31;;;;;;;;;;;;;;;32.64;22.52;100067.00;4270805;33;32661;-87
2022/05/20 12:47:04;;;;;;;;;;;;;;;32.82;22.37;100067.00;4269002;33;34975;-87
2022/05/20 12:49:39;;;;;;;;;;;;;;;32.94;22.37;100061.22;4275246;33;34794;-87
2022/05/20 12:52:11;;;;;;;;;;;;;;;33.36;22.18;100067.75;4270242;33;33612;-88
2022/05/20 12:54:42;;;;;;;;;;;;;;;33.27;21.71;100057.94;4269769;33;34221;-87
2022/05/20 12:57:13;;;;;;;;;;;;;;;32.74;21.76;100065.06;4269609;33;32867;-88
2022/05/20 12:59:43;;;;;;;;;;;;;;;32.23;22.63;100055.81;4267962;33;33931;-87
2022/05/20 13:02:14;;;;;;;;;;;;;;;32.04;22.31;100049.56;4273845;33;33873;-87
2022/05/20 13:04:45;;;;;;;;;;;;;;;32.22;23.56;100054.13;4260162;33;34169;-87
2022/05/20 13:07:16;;;;;;;;;;;;;;;32.34;23.06;100044.84;4266487;33;33780;-87
2022/05/20 13:09:47;;;;;;;;;;;;;;;32.60;22.78;100049.53;4266899;33;33623;-87
2022/05/20 13:12:19;;;;;;;;;;;;;;;32.71;22.65;100041.19;4257544;33;33764;-87
2022/05/20 13:14:56;;;;;;;;;;;;;;;32.88;22.40;100036.81;4260674;33;33127;-87
2022/05/20 13:17:25;;;;;;;;;;;;;;;32.73;22.47;100037.34;4260628;33;34225;-88
2022/05/20 13:19:54;;;;;;;;;;;;;;;32.99;21.99;100033.03;4255800;33;34055;-87
2022/05/20 13:22:24;;;;;;;;;;;;;;;33.63;21.64;100033.66;4256089;33;33685;-87
2022/05/20 13:24:53;;;;;;;;;;;;;;;33.87;21.74;100027.53;4267754;33;33308;-87
2022/05/20 13:27:23;;;;;;;;;;;;;;;34.00;21.99;100028.75;4270342;33;34617;-88
2022/05/20 13:29:52;;;;;;;;;;;;;;;34.04;20.93;100021.19;4274380;33;33462;-88
2022/05/20 13:32:31;;;;;;;;;;;;;;;34.56;20.86;100022.81;4270036;33;34080;-88